Time;durP1;ratioP1;P1;durP2;ratioP2;P2;SDS_P1;SDS_P2;PMS_P1;PMS_P2;Temp;Humidity;BMP_temperature;BMP_pressure;BME280_temperature;BME280_humidity;BME280_pressure;Samples;Min_cycle;Max_cycle;Signal;HPM_P1;HPM_P2
2023/07/04 00:02:40;;;;;;;8.40;5.80;;;;;;;15.99;55.12;99805.09;129503;1268;107342;-77
2023/07/04 00:05:50;;;;;;;8.50;5.60;;;;;;;16.01;55.11;99806.21;129507;1269;107218;-78
2023/07/04 00:08:55;;;;;;;9.30;5.60;;;;;;;16.01;55.28;99804.15;129510;1269;107565;-78
2023/07/04 00:12:01;;;;;;;10.70;5.80;;;;;;;16.03;55.44;99803.86;129518;1267;107569;-76
2023/07/04 00:15:09;;;;;;;9.10;6.00;;;;;;;16.04;55.47;99804.83;129548;1270;107513;-77
2023/07/04 00:18:17;;;;;;;8.30;5.40;;;;;;;16.04;55.69;99805.56;129669;1268;107726;-77
2023/07/04 00:21:23;;;;;;;9.10;5.70;;;;;;;16.01;55.87;99806.67;129544;1267;106771;-76
2023/07/04 00:24:29;;;;;;;8.70;6.00;;;;;;;15.99;55.98;99811.42;129571;1270;107485;-77
2023/07/04 00:27:34;;;;;;;9.80;6.10;;;;;;;16.03;56.07;99807.34;129532;1267;107729;-77
2023/07/04 00:30:40;;;;;;;11.10;5.80;;;;;;;16.06;56.25;99808.34;129533;1268;107286;-76
2023/07/04 00:33:46;;;;;;;8.10;5.70;;;;;;;16.07;56.37;99813.90;129641;1268;107650;-76
2023/07/04 00:36:52;;;;;;;8.50;5.90;;;;;;;16.07;56.53;99810.95;129546;1268;107217;-77
2023/07/04 00:39:58;;;;;;;10.20;6.00;;;;;;;16.05;56.51;99815.52;129386;1267;192302;-76
2023/07/04 00:43:04;;;;;;;10.30;5.60;;;;;;;16.04;56.78;99820.64;129542;1270;108472;-77
2023/07/04 00:46:10;;;;;;;9.30;6.10;;;;;;;16.05;56.89;99820.27;129515;1270;106499;-77
2023/07/04 00:49:20;;;;;;;9.60;5.70;;;;;;;16.06;56.91;99818.83;129605;1268;109367;-77
2023/07/04 00:52:31;;;;;;;10.20;5.90;;;;;;;16.01;57.14;99819.39;129609;1270;107552;-77
2023/07/04 00:55:40;;;;;;;8.90;5.80;;;;;;;15.94;57.25;99819.84;129577;1269;107478;-77
2023/07/04 00:58:45;;;;;;;10.90;5.70;;;;;;;15.89;57.32;99821.92;129541;1270;107314;-77
2023/07/04 01:01:50;;;;;;;9.60;5.50;;;;;;;15.83;57.40;99820.52;129554;1267;107572;-77
2023/07/04 01:04:57;;;;;;;8.90;5.70;;;;;;;15.82;57.54;99827.60;129579;1271;107401;-77
2023/07/04 01:08:08;;;;;;;7.80;5.90;;;;;;;15.81;57.60;99823.78;129557;1271;107562;-79
2023/07/04 01:11:20;;;;;;;9.10;6.00;;;;;;;15.83;57.80;99818.03;129553;1270;107424;-77
2023/07/04 01:14:26;;;;;;;9.40;6.30;;;;;;;15.83;58.06;99820.64;129358;1271;107403;-76
2023/07/04 01:17:32;;;;;;;9.70;5.80;;;;;;;15.81;58.27;99823.83;129401;1270;107575;-76
2023/07/04 01:20:38;;;;;;;7.20;4.60;;;;;;;15.78;58.33;99826.00;129546;1268;107427;-77
2023/07/04 01:23:52;;;;;;;8.80;5.50;;;;;;;15.80;58.38;99829.40;129550;1267;107571;-77
2023/07/04 01:26:59;;;;;;;8.40;5.60;;;;;;;15.83;58.48;99832.20;129320;1270;107461;-76
2023/07/04 01:30:06;;;;;;;7.50;5.50;;;;;;;15.91;58.56;99828.23;129578;1271;107477;-77
2023/07/04 01:33:13;;;;;;;8.50;5.70;;;;;;;15.98;58.69;99830.45;129626;1270;107556;-76
2023/07/04 01:36:22;;;;;;;10.90;6.10;;;;;;;16.02;58.79;99830.73;129345;1270;107471;-77
2023/07/04 01:39:28;;;;;;;9.00;5.90;;;;;;;16.06;59.08;99825.73;129593;1267;106427;-76
2023/07/04 01:42:36;;;;;;;8.20;5.40;;;;;;;16.04;59.02;99825.65;129542;1268;106579;-76
2023/07/04 01:45:45;;;;;;;10.50;6.00;;;;;;;16.01;59.16;99828.04;129389;1270;107505;-76
2023/07/04 01:48:51;;;;;;;8.90;5.60;;;;;;;16.01;59.36;99826.38;129389;1270;107565;-77
2023/07/04 01:51:56;;;;;;;9.10;6.00;;;;;;;15.97;59.45;99824.02;129549;1270;107438;-77
2023/07/04 01:55:02;;;;;;;10.10;6.30;;;;;;;15.92;59.48;99826.58;129544;1268;107320;-76
2023/07/04 01:58:08;;;;;;;8.00;5.80;;;;;;;15.88;59.65;99826.30;129578;1267;107585;-77
2023/07/04 02:01:13;;;;;;;8.00;6.10;;;;;;;15.88;59.90;99825.64;129342;1268;107274;-76
2023/07/04 02:04:19;;;;;;;10.50;6.30;;;;;;;15.89;59.95;99822.84;129309;1271;107477;-76
2023/07/04 02:07:24;;;;;;;9.10;6.20;;;;;;;15.88;59.96;99819.11;129359;1270;106935;-76
2023/07/04 02:10:30;;;;;;;10.20;5.70;;;;;;;15.90;60.10;99821.06;129348;1268;107642;-77
2023/07/04 02:13:35;;;;;;;9.50;6.20;;;;;;;15.92;60.23;99820.24;129398;1267;106778;-76
2023/07/04 02:16:41;;;;;;;9.50;6.00;;;;;;;15.91;60.13;99824.33;129206;1271;107257;-77
2023/07/04 02:19:46;;;;;;;9.00;5.50;;;;;;;15.87;60.33;99823.16;129319;1266;107495;-76
2023/07/04 02:22:52;;;;;;;10.10;5.60;;;;;;;15.84;60.22;99822.39;129373;1268;106115;-76
2023/07/04 02:25:58;;;;;;;9.10;5.30;;;;;;;15.82;60.41;99821.51;129248;1270;107618;-76
2023/07/04 02:29:04;;;;;;;10.80;5.90;;;;;;;15.86;60.59;99824.76;129231;1273;107384;-76
2023/07/04 02:32:10;;;;;;;7.60;5.80;;;;;;;15.91;60.63;99822.02;129381;1268;107536;-76
2023/07/04 02:35:16;;;;;;;7.90;5.40;;;;;;;15.94;60.79;99821.86;129503;1268;107451;-76
2023/07/04 02:38:22;;;;;;;9.20;6.10;;;;;;;15.94;60.90;99823.11;129367;1270;107554;-76
2023/07/04 02:41:30;;;;;;;8.80;5.80;;;;;;;15.90;60.70;99825.54;129343;1270;107457;-77
2023/07/04 02:44:36;;;;;;;9.10;5.60;;;;;;;15.81;60.85;99830.23;129401;1271;106514;-76
2023/07/04 02:47:43;;;;;;;10.00;6.30;;;;;;;15.78;61.01;99828.31;129428;1270;107396;-77
2023/07/04 02:50:54;;;;;;;9.40;5.80;;;;;;;15.74;61.23;99827.21;129377;1270;107525;-76
2023/07/04 02:54:00;;;;;;;8.00;6.20;;;;;;;15.72;61.18;99835.70;129362;1270;105850;-76
2023/07/04 02:57:13;;;;;;;9.60;6.70;;;;;;;15.69;61.17;99837.11;129374;1283;107454;-76
2023/07/04 03:00:20;;;;;;;8.70;6.20;;;;;;;15.68;61.31;99835.30;129407;1268;107541;-76
2023/07/04 03:03:27;;;;;;;9.70;6.40;;;;;;;15.69;61.59;99837.67;129280;1268;107580;-76
2023/07/04 03:06:34;;;;;;;10.10;6.30;;;;;;;15.70;61.39;99842.56;129267;1272;107534;-76
2023/07/04 03:09:41;;;;;;;9.10;6.20;;;;;;;15.67;61.59;99848.73;129341;1270;107662;-76
2023/07/04 03:12:47;;;;;;;8.60;6.10;;;;;;;15.65;61.74;99847.20;129400;1270;108611;-76
2023/07/04 03:15:53;;;;;;;9.70;6.20;;;;;;;15.67;61.75;99841.47;129366;1271;107414;-76
2023/07/04 03:19:00;;;;;;;8.80;6.20;;;;;;;15.72;61.76;99838.90;129344;1270;107601;-76
2023/07/04 03:22:06;;;;;;;9.00;5.80;;;;;;;15.76;61.89;99841.14;129341;1281;107680;-76
2023/07/04 03:25:15;;;;;;;10.20;6.00;;;;;;;15.76;61.92;99839.48;129302;1269;107497;-77
2023/07/04 03:28:22;;;;;;;9.80;6.30;;;;;;;15.72;61.98;99836.08;129373;1270;107497;-77
2023/07/04 03:31:28;;;;;;;9.30;6.00;;;;;;;15.71;62.09;99834.04;129346;1270;108705;-77
2023/07/04 03:34:34;;;;;;;9.40;6.30;;;;;;;15.80;62.07;99828.27;129424;1268;107541;-76
2023/07/04 03:37:40;;;;;;;10.10;6.40;;;;;;;15.94;62.22;99828.98;129364;1268;107682;-76
2023/07/04 03:40:45;;;;;;;11.40;6.80;;;;;;;16.20;62.13;99829.23;129368;1270;107569;-76
2023/07/04 03:43:51;;;;;;;9.90;6.50;;;;;;;16.43;62.03;99828.02;129334;1270;107470;-77
2023/07/04 03:46:56;;;;;;;7.80;5.70;;;;;;;16.69;61.93;99829.08;129342;1268;107633;-76
2023/07/04 03:50:02;;;;;;;8.80;6.30;;;;;;;16.91;61.88;99836.75;129335;1270;107520;-77
2023/07/04 03:53:08;;;;;;;8.70;6.20;;;;;;;17.16;61.71;99837.48;129334;1270;107754;-77
2023/07/04 03:56:15;;;;;;;11.90;6.00;;;;;;;17.41;61.71;99836.95;129346;1270;107494;-77
2023/07/04 03:59:21;;;;;;;7.90;6.60;;;;;;;17.64;61.56;99841.87;129426;1268;107696;-77
2023/07/04 04:02:27;;;;;;;8.40;6.50;;;;;;;17.91;61.50;99841.21;129396;1271;107403;-77
2023/07/04 04:05:33;;;;;;;9.50;6.30;;;;;;;18.23;61.33;99839.60;129628;1270;107571;-77
2023/07/04 04:08:38;;;;;;;9.40;6.40;;;;;;;18.51;61.18;99836.52;129573;1280;106567;-77
2023/07/04 04:11:44;;;;;;;11.10;7.10;;;;;;;18.74;60.93;99837.82;129571;1271;107603;-77
2023/07/04 04:14:50;;;;;;;8.80;6.40;;;;;;;18.87;60.93;99837.89;129572;1271;107569;-77
2023/07/04 04:17:58;;;;;;;10.30;6.80;;;;;;;18.98;60.42;99845.42;129597;1270;107251;-78
2023/07/04 04:21:03;;;;;;;8.80;6.40;;;;;;;19.04;60.69;99847.52;129381;1270;106136;-77
2023/07/04 04:24:09;;;;;;;9.00;6.10;;;;;;;19.23;61.06;99847.55;129350;1271;107490;-77
2023/07/04 04:27:15;;;;;;;10.30;6.90;;;;;;;19.38;60.80;99847.27;129462;1270;107870;-77
2023/07/04 04:30:21;;;;;;;8.40;6.20;;;;;;;19.39;60.57;99855.24;129452;1270;107402;-77
2023/07/04 04:33:27;;;;;;;8.70;6.50;;;;;;;19.37;60.83;99857.96;129445;1272;107620;-77
2023/07/04 04:36:33;;;;;;;9.30;6.40;;;;;;;19.33;60.62;99858.30;129307;1271;107299;-77
2023/07/04 04:39:40;;;;;;;9.40;6.60;;;;;;;19.29;60.73;99858.74;129311;1270;107476;-77
2023/07/04 04:42:47;;;;;;;11.80;6.60;;;;;;;19.26;60.67;99866.87;129348;1270;107530;-77
2023/07/04 04:45:52;;;;;;;10.40;6.20;;;;;;;19.21;60.52;99867.79;129344;1270;107404;-77
2023/07/04 04:49:03;;;;;;;10.10;6.20;;;;;;;19.25;60.68;99865.30;129370;1270;105873;-78
2023/07/04 04:52:09;;;;;;;8.30;6.00;;;;;;;19.43;60.37;99870.73;129355;1270;107562;-77
2023/07/04 04:55:15;;;;;;;9.50;6.10;;;;;;;19.50;60.04;99871.60;129309;1270;108140;-77
2023/07/04 04:58:21;;;;;;;8.30;6.10;;;;;;;19.51;59.84;99870.88;129349;1268;107601;-77
2023/07/04 05:01:27;;;;;;;11.70;6.80;;;;;;;19.49;59.99;99868.16;129336;1270;107597;-78
2023/07/04 05:04:33;;;;;;;9.10;5.80;;;;;;;19.47;60.07;99870.25;129591;1270;107510;-77
2023/07/04 05:07:39;;;;;;;8.90;6.00;;;;;;;19.47;60.36;99872.02;129610;1269;107578;-77
2023/07/04 05:10:45;;;;;;;12.00;6.40;;;;;;;19.66;60.52;99879.05;129580;1271;107518;-77
2023/07/04 05:13:51;;;;;;;9.70;6.50;;;;;;;20.01;60.27;99877.89;129513;1271;108734;-77
2023/07/04 05:16:57;;;;;;;10.80;6.10;;;;;;;20.34;59.83;99871.98;129975;1269;107635;-79
2023/07/04 05:20:05;;;;;;;9.40;5.90;;;;;;;20.65;59.50;99867.84;129580;1270;107445;-77
2023/07/04 05:23:10;;;;;;;11.80;5.70;;;;;;;20.90;59.13;99871.67;129574;1270;107431;-76
2023/07/04 05:26:19;;;;;;;10.40;5.50;;;;;;;21.14;58.74;99877.16;129579;1281;106687;-77
2023/07/04 05:29:24;;;;;;;9.30;5.50;;;;;;;21.28;58.46;99876.74;129570;1271;108688;-77
2023/07/04 05:32:30;;;;;;;11.60;5.20;;;;;;;21.36;58.47;99883.04;129508;1271;106780;-77
2023/07/04 05:35:36;;;;;;;7.50;4.90;;;;;;;21.45;58.37;99886.47;129627;1271;107247;-77
2023/07/04 05:38:42;;;;;;;9.30;5.50;;;;;;;21.65;58.09;99885.56;129520;1271;107491;-77
2023/07/04 05:41:48;;;;;;;11.40;5.20;;;;;;;21.84;57.70;99886.98;129527;1271;107475;-76
2023/07/04 05:44:53;;;;;;;9.70;5.00;;;;;;;22.00;57.39;99887.08;129540;1271;107480;-77
2023/07/04 05:47:59;;;;;;;9.30;5.00;;;;;;;22.08;57.24;99882.37;129531;1270;107530;-77
2023/07/04 05:51:06;;;;;;;8.50;5.00;;;;;;;22.13;56.80;99881.89;129585;1270;106756;-77
2023/07/04 05:54:12;;;;;;;10.50;4.70;;;;;;;22.21;56.63;99882.70;129594;1271;107397;-77
2023/07/04 05:57:17;;;;;;;8.60;4.30;;;;;;;22.29;56.07;99887.35;129506;1271;107500;-77
2023/07/04 06:00:23;;;;;;;7.80;4.70;;;;;;;22.36;55.69;99888.05;129508;1270;107569;-77
2023/07/04 06:03:29;;;;;;;5.90;4.20;;;;;;;22.43;55.24;99879.70;129582;1270;107595;-77
2023/07/04 06:06:37;;;;;;;9.00;4.40;;;;;;;22.50;54.86;99885.17;129536;1271;107548;-77
2023/07/04 06:09:42;;;;;;;7.50;4.20;;;;;;;22.55;54.33;99880.01;129596;1270;107606;-76
2023/07/04 06:12:49;;;;;;;7.80;3.70;;;;;;;22.63;54.16;99877.88;129309;1271;107675;-76
2023/07/04 06:15:55;;;;;;;5.40;3.50;;;;;;;22.65;53.42;99875.06;129439;1268;107334;-77
2023/07/04 06:19:01;;;;;;;7.30;3.90;;;;;;;22.71;53.35;99879.78;129354;1274;107413;-76
2023/07/04 06:22:07;;;;;;;8.60;3.30;;;;;;;22.77;52.41;99880.38;129337;1270;107566;-77
2023/07/04 06:25:12;;;;;;;5.50;3.40;;;;;;;22.81;52.49;99881.00;129322;1273;107572;-78
2023/07/04 06:28:18;;;;;;;6.30;3.20;;;;;;;22.87;51.55;99885.18;129329;1270;107679;-77
2023/07/04 06:31:24;;;;;;;4.20;3.10;;;;;;;22.90;51.30;99888.63;129333;1271;107264;-78
2023/07/04 06:34:29;;;;;;;6.50;3.00;;;;;;;22.93;50.92;99886.49;129585;1270;107560;-77
2023/07/04 06:37:35;;;;;;;5.10;3.00;;;;;;;22.96;50.41;99886.12;129568;1281;107593;-78
2023/07/04 06:40:40;;;;;;;7.60;3.10;;;;;;;22.98;50.53;99888.79;129552;1270;107312;-77
2023/07/04 06:43:47;;;;;;;7.10;3.20;;;;;;;23.03;49.97;99891.34;129557;1270;107567;-77
2023/07/04 06:46:53;;;;;;;4.30;2.70;;;;;;;23.06;49.61;99898.64;129586;1279;107554;-77
2023/07/04 06:49:59;;;;;;;5.70;2.80;;;;;;;23.08;48.60;99891.21;129579;1278;107597;-77
2023/07/04 06:53:04;;;;;;;4.60;2.90;;;;;;;23.12;49.03;99884.94;129517;1269;105712;-78
2023/07/04 06:56:12;;;;;;;6.70;3.00;;;;;;;23.16;48.26;99889.45;129517;1270;107583;-77
2023/07/04 06:59:17;;;;;;;4.90;2.80;;;;;;;23.20;47.86;99887.27;129544;1270;107434;-77
2023/07/04 07:02:24;;;;;;;4.00;2.60;;;;;;;23.24;47.80;99886.71;129542;1271;107527;-77
2023/07/04 07:05:29;;;;;;;4.90;2.80;;;;;;;23.27;47.47;99888.20;129579;1269;107549;-77
2023/07/04 07:08:36;;;;;;;5.20;3.10;;;;;;;23.31;47.37;99888.80;129438;1271;107719;-77
2023/07/04 07:11:42;;;;;;;5.70;2.80;;;;;;;23.38;47.32;99889.77;129446;1270;107568;-77
2023/07/04 07:14:48;;;;;;;4.50;2.60;;;;;;;23.43;46.51;99886.50;129396;1270;107901;-78
2023/07/04 07:17:54;;;;;;;4.80;3.00;;;;;;;23.49;46.63;99888.66;129414;1270;107449;-77
2023/07/04 07:21:01;;;;;;;4.70;2.50;;;;;;;23.56;46.06;99894.42;129568;1271;107580;-77
2023/07/04 07:24:07;;;;;;;6.40;2.80;;;;;;;23.60;45.96;99891.77;129490;1270;107436;-77
2023/07/04 07:27:12;;;;;;;5.30;2.70;;;;;;;23.64;45.48;99891.94;129410;1279;107274;-78
2023/07/04 07:30:18;;;;;;;6.70;2.60;;;;;;;23.67;45.33;99883.88;129403;1270;107584;-77
2023/07/04 07:33:24;;;;;;;6.80;3.10;;;;;;;23.72;45.20;99882.27;129447;1270;107563;-77
2023/07/04 07:36:31;;;;;;;5.60;2.50;;;;;;;23.78;45.11;99883.56;129621;1278;108045;-77
2023/07/04 07:39:37;;;;;;;6.80;2.40;;;;;;;23.85;44.92;99881.61;129536;1271;107654;-78
2023/07/04 07:42:43;;;;;;;4.20;2.30;;;;;;;23.92;44.73;99879.55;129427;1268;105908;-77
2023/07/04 07:45:49;;;;;;;6.00;2.40;;;;;;;23.99;44.18;99878.98;129514;1273;107712;-77
2023/07/04 07:48:54;;;;;;;4.60;2.40;;;;;;;24.03;43.51;99878.21;129573;1271;106572;-77
2023/07/04 07:52:00;;;;;;;5.80;2.70;;;;;;;24.07;43.53;99869.92;129393;1271;107615;-77
2023/07/04 07:55:06;;;;;;;4.50;2.90;;;;;;;24.09;43.44;99865.48;129380;1272;107400;-78
2023/07/04 07:58:12;;;;;;;4.20;2.60;;;;;;;24.16;43.50;99865.41;129387;1273;108014;-77
2023/07/04 08:01:20;;;;;;;4.30;2.40;;;;;;;24.19;43.00;99860.23;129417;1274;107537;-77
2023/07/04 08:04:27;;;;;;;5.50;2.90;;;;;;;24.22;42.51;99860.23;129674;1277;107442;-77
2023/07/04 08:07:33;;;;;;;5.30;2.50;;;;;;;24.29;43.34;99861.12;129540;1274;107459;-77
2023/07/04 08:10:40;;;;;;;5.60;2.80;;;;;;;24.36;43.06;99863.27;129463;1273;107581;-77
2023/07/04 08:13:46;;;;;;;7.00;2.80;;;;;;;24.42;42.70;99857.78;129385;1270;107428;-77
2023/07/04 08:16:53;;;;;;;5.60;2.80;;;;;;;24.47;42.18;99854.95;129424;1281;107496;-77
2023/07/04 08:20:00;;;;;;;3.50;2.30;;;;;;;24.52;42.13;99857.17;129600;1280;108757;-77
2023/07/04 08:23:05;;;;;;;5.80;2.60;;;;;;;24.56;41.86;99851.77;129582;1271;107405;-76
2023/07/04 08:26:16;;;;;;;5.60;2.60;;;;;;;24.62;42.00;99851.77;129452;1271;107578;-77
2023/07/04 08:29:22;;;;;;;9.70;2.70;;;;;;;24.68;41.70;99858.89;129487;1280;107478;-77
2023/07/04 08:32:29;;;;;;;6.10;2.70;;;;;;;24.72;41.58;99857.39;129571;1270;107576;-78
2023/07/04 08:35:35;;;;;;;7.00;2.90;;;;;;;24.75;41.25;99852.72;129523;1280;107528;-77
2023/07/04 08:38:40;;;;;;;8.00;2.80;;;;;;;24.79;41.04;99851.68;129499;1269;108694;-77
2023/07/04 08:41:52;;;;;;;4.30;2.50;;;;;;;24.82;40.73;99845.55;129460;1271;107535;-76
2023/07/04 08:44:59;;;;;;;5.90;3.30;;;;;;;24.87;40.98;99845.71;129519;1271;107424;-77
2023/07/04 08:48:06;;;;;;;6.60;2.90;;;;;;;24.93;40.86;99850.79;129323;1270;106378;-77
2023/07/04 08:51:17;;;;;;;4.90;2.80;;;;;;;24.98;41.00;99848.27;129537;1274;107359;-77
2023/07/04 08:54:23;;;;;;;5.90;2.60;;;;;;;25.03;40.63;99846.40;129525;1270;107299;-78
2023/07/04 08:57:39;;;;;;;3.70;2.50;;;;;;;25.07;40.18;99849.12;129338;1273;106748;-77
2023/07/04 09:00:45;;;;;;;6.20;3.10;;;;;;;25.10;40.05;99849.52;129379;1276;107746;-77
2023/07/04 09:03:58;;;;;;;6.30;3.00;;;;;;;25.15;40.03;99845.43;129499;1270;107388;-79
2023/07/04 09:07:14;;;;;;;5.20;2.80;;;;;;;25.18;39.75;99845.23;129497;1281;107590;-76
2023/07/04 09:10:30;;;;;;;3.90;2.60;;;;;;;25.21;39.56;99837.94;129534;1267;107205;-79
2023/07/04 09:13:38;;;;;;;7.80;3.30;;;;;;;25.25;39.57;99839.20;129587;1270;108711;-77
2023/07/04 09:16:48;;;;;;;5.10;2.60;;;;;;;25.29;39.45;99836.39;129590;1271;107535;-77
2023/07/04 09:19:55;;;;;;;3.90;2.60;;;;;;;25.33;38.93;99836.96;129618;1270;107186;-77
2023/07/04 09:23:02;;;;;;;5.90;2.80;;;;;;;25.36;39.10;99835.90;129560;1281;107552;-77
2023/07/04 09:26:10;;;;;;;7.30;2.70;;;;;;;25.38;39.02;99836.58;129537;1279;107480;-77
2023/07/04 09:29:21;;;;;;;5.00;2.90;;;;;;;25.41;38.70;99837.09;129485;1278;107547;-77
2023/07/04 09:32:27;;;;;;;5.80;3.00;;;;;;;25.41;37.69;99830.14;129530;1271;106454;-77
2023/07/04 09:35:33;;;;;;;4.50;2.80;;;;;;;25.41;37.47;99830.65;129611;1270;108569;-77
2023/07/04 09:38:55;;;;;;;5.20;2.80;;;;;;;25.43;37.99;99833.45;129607;1278;107698;-77
2023/07/04 09:42:01;;;;;;;5.20;2.90;;;;;;;25.52;38.48;99833.73;129516;1269;107327;-77
2023/07/04 09:45:12;;;;;;;3.80;2.50;;;;;;;25.59;37.94;99838.76;129507;1274;107523;-77
2023/07/04 09:48:25;;;;;;;5.30;3.00;;;;;;;25.62;38.18;99842.33;129538;1274;107422;-77
2023/07/04 09:51:32;;;;;;;6.20;3.00;;;;;;;25.69;37.88;99837.66;129581;1268;107218;-77
2023/07/04 09:54:39;;;;;;;4.80;3.00;;;;;;;25.76;37.82;99845.97;129532;1270;107697;-76
2023/07/04 09:57:45;;;;;;;4.90;3.60;;;;;;;25.79;37.37;99847.57;129543;1278;106719;-78
2023/07/04 10:01:08;;;;;;;4.80;3.30;;;;;;;25.84;37.85;99844.61;129528;1267;107570;-78
2023/07/04 10:04:24;;;;;;;6.00;3.00;;;;;;;25.90;37.34;99855.07;129939;1267;107685;-77
2023/07/04 10:07:30;;;;;;;6.00;2.80;;;;;;;25.93;37.07;99845.22;130543;1270;107528;-77
2023/07/04 10:10:38;;;;;;;5.60;3.30;;;;;;;25.95;37.18;99844.18;129662;1271;107652;-77
2023/07/04 10:13:43;;;;;;;6.10;3.40;;;;;;;26.00;36.77;99841.33;129539;1278;107544;-77
2023/07/04 10:16:51;;;;;;;5.60;3.50;;;;;;;26.00;36.23;99842.96;129556;1271;107679;-77
2023/07/04 10:20:03;;;;;;;5.70;3.30;;;;;;;26.03;36.58;99844.67;129624;1278;107324;-78
2023/07/04 10:23:09;;;;;;;7.00;3.60;;;;;;;26.09;36.83;99836.45;129553;1269;107539;-77
2023/07/04 10:26:16;;;;;;;6.20;3.30;;;;;;;26.13;36.67;99835.05;129524;1271;107533;-76
2023/07/04 10:29:30;;;;;;;5.70;3.30;;;;;;;26.18;36.22;99836.60;129566;1267;107269;-77
2023/07/04 10:32:40;;;;;;;7.60;3.80;;;;;;;26.22;36.42;99828.35;129575;1272;107560;-77
2023/07/04 10:35:48;;;;;;;7.20;3.50;;;;;;;26.23;36.44;99830.92;129656;1272;107406;-76
2023/07/04 10:38:57;;;;;;;6.30;3.90;;;;;;;26.30;36.44;99841.30;129591;1267;107343;-77
2023/07/04 10:42:13;;;;;;;7.30;3.80;;;;;;;26.36;36.17;99837.81;129536;1281;107518;-77
2023/07/04 10:45:23;;;;;;;6.80;3.80;;;;;;;26.39;36.12;99835.36;129591;1284;107543;-78
2023/07/04 10:48:34;;;;;;;6.50;4.40;;;;;;;26.44;36.04;99839.98;129519;1278;107559;-77
2023/07/04 10:51:43;;;;;;;6.10;4.40;;;;;;;26.45;35.20;99833.85;129604;1270;107558;-76
2023/07/04 10:54:50;;;;;;;7.30;4.70;;;;;;;26.47;35.63;99843.75;129532;1271;107565;-77
2023/07/04 10:58:03;;;;;;;6.70;4.80;;;;;;;26.52;35.36;99834.10;129559;1277;107557;-77
2023/07/04 11:01:15;;;;;;;5.10;3.80;;;;;;;26.55;35.25;99833.33;129590;1270;107407;-76
2023/07/04 11:04:24;;;;;;;5.40;3.90;;;;;;;26.62;35.42;99834.80;129636;1278;106750;-77
2023/07/04 11:07:30;;;;;;;8.40;4.40;;;;;;;26.69;35.20;99823.17;129604;1270;107582;-76
2023/07/04 11:10:42;;;;;;;6.70;4.80;;;;;;;26.72;35.14;99831.71;129410;1274;108031;-78
2023/07/04 11:13:52;;;;;;;8.50;4.90;;;;;;;26.77;35.00;99829.20;129423;1270;107495;-78
2023/07/04 11:17:03;;;;;;;7.10;4.40;;;;;;;26.84;34.92;99825.05;129523;1272;107571;-78
2023/07/04 11:20:17;;;;;;;7.70;5.10;;;;;;;26.89;35.05;99818.59;129615;1271;107643;-79
2023/07/04 11:23:24;;;;;;;8.40;5.40;;;;;;;26.96;34.96;99820.64;129532;1270;107984;-77
2023/07/04 11:26:50;;;;;;;9.80;5.20;;;;;;;27.01;35.16;99826.61;129485;1281;107205;-76
2023/07/04 11:29:58;;;;;;;5.50;4.70;;;;;;;27.06;34.66;99816.05;129513;1280;107593;-76
2023/07/04 11:33:03;;;;;;;5.90;4.60;;;;;;;27.11;34.93;99810.24;129494;1267;106073;-76
2023/07/04 11:36:17;;;;;;;9.70;5.30;;;;;;;27.17;34.88;99811.71;129608;1267;107230;-77
2023/07/04 11:39:32;;;;;;;7.40;4.90;;;;;;;27.23;34.76;99816.92;129601;1271;107529;-76
2023/07/04 11:42:44;;;;;;;7.20;5.20;;;;;;;27.30;34.98;99810.44;129526;1270;107548;-77
2023/07/04 11:45:54;;;;;;;5.90;4.80;;;;;;;27.32;34.54;99812.61;129566;1270;107547;-77
2023/07/04 11:48:59;;;;;;;7.00;5.20;;;;;;;27.20;33.40;99806.14;129520;1270;106064;-76
2023/07/04 11:52:10;;;;;;;7.70;5.40;;;;;;;27.18;34.41;99808.75;129450;1271;108905;-77
2023/07/04 11:55:18;;;;;;;9.40;6.50;;;;;;;27.25;33.45;99804.44;129441;1267;107524;-78
2023/07/04 11:58:24;;;;;;;7.10;5.80;;;;;;;27.29;33.33;99804.29;129530;1270;107527;-77
2023/07/04 12:02:04;;;;;;;9.00;5.80;;;;;;;27.33;33.66;99795.73;129391;1270;107516;-77
2023/07/04 12:05:31;;;;;;;7.70;5.60;;;;;;;27.39;33.79;99792.55;129240;1274;108686;-77
2023/07/04 12:08:41;;;;;;;8.30;5.40;;;;;;;27.49;34.04;99795.23;129056;1273;107566;-76
2023/07/04 12:11:49;;;;;;;10.10;5.90;;;;;;;27.57;33.65;99796.31;129124;1273;107284;-79
2023/07/04 12:15:01;;;;;;;7.00;5.70;;;;;;;27.69;33.73;99789.59;129264;1282;107437;-78
2023/07/04 12:18:20;;;;;;;9.10;6.30;;;;;;;27.82;33.38;99792.56;129198;1283;107620;-76
2023/07/04 12:21:25;;;;;;;9.10;5.80;;;;;;;27.87;33.37;99806.75;129147;1274;107621;-80
2023/07/04 12:24:32;;;;;;;10.00;5.70;;;;;;;27.86;33.29;99800.02;129317;1273;107615;-76
2023/07/04 12:27:40;;;;;;;8.50;5.80;;;;;;;27.84;31.84;99793.77;129198;1279;107605;-76
2023/07/04 12:30:52;;;;;;;12.00;6.00;;;;;;;27.85;32.96;99785.49;129073;1273;107520;-77
2023/07/04 12:33:58;;;;;;;7.90;6.30;;;;;;;27.91;32.62;99783.13;129165;1273;107499;-76
2023/07/04 12:37:05;;;;;;;9.20;6.50;;;;;;;27.99;32.35;99777.57;129224;1274;107571;-76
2023/07/04 12:40:18;;;;;;;8.60;6.20;;;;;;;28.03;32.76;99785.28;129041;1281;171066;-76
2023/07/04 12:43:27;;;;;;;9.00;6.30;;;;;;;28.02;32.03;99780.23;129239;1273;107577;-77
2023/07/04 12:46:36;;;;;;;9.30;5.90;;;;;;;27.89;31.57;99781.86;129144;1273;108644;-77
2023/07/04 12:49:42;;;;;;;14.20;7.70;;;;;;;27.72;31.36;99778.06;129425;1274;107529;-77
2023/07/04 12:52:50;;;;;;;10.10;6.90;;;;;;;27.64;31.85;99781.33;129395;1281;107543;-77
2023/07/04 12:55:57;;;;;;;10.20;7.70;;;;;;;27.75;31.46;99782.55;129396;1274;107860;-77
2023/07/04 12:59:03;;;;;;;9.90;7.20;;;;;;;27.86;31.37;99785.65;129200;1273;107378;-77
2023/07/04 13:02:18;;;;;;;9.80;7.90;;;;;;;27.88;31.11;99791.08;129249;1273;107425;-77
2023/07/04 13:05:25;;;;;;;8.20;6.90;;;;;;;27.76;31.27;99781.45;129627;1267;106939;-77
2023/07/04 13:08:32;;;;;;;10.10;7.80;;;;;;;27.76;31.65;99775.81;129568;1269;107423;-77
2023/07/04 13:11:38;;;;;;;9.70;7.10;;;;;;;27.81;31.13;99770.91;129528;1270;107459;-77
2023/07/04 13:14:44;;;;;;;10.30;7.30;;;;;;;27.79;30.94;99776.63;129532;1281;107384;-77
2023/07/04 13:18:05;;;;;;;12.00;7.30;;;;;;;27.75;30.79;99775.38;129535;1270;107539;-78
2023/07/04 13:21:22;;;;;;;8.60;6.80;;;;;;;27.76;30.68;99779.21;129614;1269;107593;-77
2023/07/04 13:24:33;;;;;;;10.10;6.90;;;;;;;27.61;30.41;99774.48;129542;1279;107518;-77
2023/07/04 13:27:39;;;;;;;8.80;6.80;;;;;;;27.63;30.70;99773.60;129580;1269;107705;-77
2023/07/04 13:30:45;;;;;;;10.00;7.40;;;;;;;27.66;30.05;99776.28;129576;1267;107600;-77
2023/07/04 13:33:52;;;;;;;10.00;7.40;;;;;;;27.60;29.96;99776.68;129495;1270;107578;-78
2023/07/04 13:37:00;;;;;;;9.70;7.50;;;;;;;27.55;29.66;99778.55;129500;1267;107293;-77
2023/07/04 13:40:08;;;;;;;9.30;7.20;;;;;;;27.40;29.77;99779.13;129562;1268;107120;-78
2023/07/04 13:43:16;;;;;;;8.60;6.90;;;;;;;27.33;30.19;99780.45;129452;1270;107537;-78
2023/07/04 13:46:23;;;;;;;9.70;7.40;;;;;;;27.36;29.53;99775.73;129470;1270;107581;-78
2023/07/04 13:49:29;;;;;;;11.00;7.00;;;;;;;27.39;29.45;99772.66;129499;1270;107316;-77
2023/07/04 13:52:34;;;;;;;9.60;7.30;;;;;;;27.34;29.99;99776.01;129575;1270;107588;-78
2023/07/04 13:55:40;;;;;;;9.40;7.20;;;;;;;27.42;29.95;99775.07;129472;1270;107538;-77
2023/07/04 13:58:46;;;;;;;9.70;7.60;;;;;;;27.59;30.01;99769.50;129377;1270;107549;-77
2023/07/04 14:01:51;;;;;;;9.50;8.40;;;;;;;27.78;30.03;99765.33;129486;1273;107269;-78
2023/07/04 14:04:57;;;;;;;10.20;8.20;;;;;;;27.84;29.66;99772.27;129617;1271;107553;-77
2023/07/04 14:08:02;;;;;;;9.80;8.10;;;;;;;27.77;29.97;99774.83;129525;1270;106917;-77
2023/07/04 14:11:10;;;;;;;9.80;8.40;;;;;;;27.73;29.67;99773.19;129561;1266;107354;-78
2023/07/04 14:14:16;;;;;;;12.20;7.70;;;;;;;27.84;29.76;99769.80;129519;1270;107553;-78
2023/07/04 14:17:21;;;;;;;12.00;7.50;;;;;;;27.85;29.55;99771.89;129507;1271;108108;-79
2023/07/04 14:20:28;;;;;;;12.70;7.50;;;;;;;27.89;29.93;99773.97;129563;1270;107543;-77
2023/07/04 14:23:33;;;;;;;10.40;7.80;;;;;;;27.95;29.85;99768.31;129503;1271;107424;-78